sensor_id;sensor_type;location;lat;lon;timestamp;P1;durP1;ratioP1;P2;durP2;ratioP2
75413;SDS011;64758;52.122;5.404;2023-11-21T00:01:03;13.53;;;5.37;;
75413;SDS011;64758;52.122;5.404;2023-11-21T00:03:30;20.10;;;5.55;;
75413;SDS011;64758;52.122;5.404;2023-11-21T00:05:58;16.40;;;6.28;;
75413;SDS011;64758;52.122;5.404;2023-11-21T00:08:24;12.57;;;5.68;;
75413;SDS011;64758;52.122;5.404;2023-11-21T00:10:51;15.90;;;5.68;;
75413;SDS011;64758;52.122;5.404;2023-11-21T00:13:17;18.73;;;5.57;;
75413;SDS011;64758;52.122;5.404;2023-11-21T00:15:44;21.08;;;5.70;;
75413;SDS011;64758;52.122;5.404;2023-11-21T00:18:11;22.83;;;6.20;;
75413;SDS011;64758;52.122;5.404;2023-11-21T00:20:37;15.95;;;4.85;;
75413;SDS011;64758;52.122;5.404;2023-11-21T00:23:04;18.67;;;4.88;;
75413;SDS011;64758;52.122;5.404;2023-11-21T00:25:30;13.23;;;4.00;;
75413;SDS011;64758;52.122;5.404;2023-11-21T00:27:58;15.43;;;3.95;;
75413;SDS011;64758;52.122;5.404;2023-11-21T00:30:25;8.27;;;3.97;;
75413;SDS011;64758;52.122;5.404;2023-11-21T00:32:52;9.70;;;4.70;;
75413;SDS011;64758;52.122;5.404;2023-11-21T00:35:18;15.00;;;4.88;;
75413;SDS011;64758;52.122;5.404;2023-11-21T00:37:45;9.27;;;4.70;;
75413;SDS011;64758;52.122;5.404;2023-11-21T00:40:12;17.88;;;5.22;;
75413;SDS011;64758;52.122;5.404;2023-11-21T00:42:39;12.15;;;5.65;;
75413;SDS011;64758;52.122;5.404;2023-11-21T00:45:06;9.15;;;4.97;;
75413;SDS011;64758;52.122;5.404;2023-11-21T00:47:33;11.23;;;5.63;;
75413;SDS011;64758;52.122;5.404;2023-11-21T00:50:00;8.67;;;4.83;;
75413;SDS011;64758;52.122;5.404;2023-11-21T00:52:26;8.02;;;4.80;;
75413;SDS011;64758;52.122;5.404;2023-11-21T00:54:53;9.10;;;5.32;;
75413;SDS011;64758;52.122;5.404;2023-11-21T00:57:20;8.55;;;5.07;;
75413;SDS011;64758;52.122;5.404;2023-11-21T00:59:46;8.32;;;4.95;;
75413;SDS011;64758;52.122;5.404;2023-11-21T01:02:13;8.57;;;4.60;;
75413;SDS011;64758;52.122;5.404;2023-11-21T01:04:39;8.90;;;5.43;;
75413;SDS011;64758;52.122;5.404;2023-11-21T01:07:06;9.40;;;5.38;;
75413;SDS011;64758;52.122;5.404;2023-11-21T01:09:33;11.40;;;5.53;;
75413;SDS011;64758;52.122;5.404;2023-11-21T01:12:00;10.80;;;5.35;;
75413;SDS011;64758;52.122;5.404;2023-11-21T01:14:27;8.53;;;4.87;;
75413;SDS011;64758;52.122;5.404;2023-11-21T01:16:53;9.73;;;5.10;;
75413;SDS011;64758;52.122;5.404;2023-11-21T01:19:20;7.35;;;4.47;;
75413;SDS011;64758;52.122;5.404;2023-11-21T01:21:47;7.93;;;3.58;;
75413;SDS011;64758;52.122;5.404;2023-11-21T01:24:14;6.72;;;3.80;;
75413;SDS011;64758;52.122;5.404;2023-11-21T01:26:40;8.50;;;4.23;;
75413;SDS011;64758;52.122;5.404;2023-11-21T01:29:07;10.18;;;4.20;;
75413;SDS011;64758;52.122;5.404;2023-11-21T01:31:33;6.57;;;4.00;;
75413;SDS011;64758;52.122;5.404;2023-11-21T01:34:00;9.35;;;4.18;;
75413;SDS011;64758;52.122;5.404;2023-11-21T01:36:33;12.25;;;4.30;;
75413;SDS011;64758;52.122;5.404;2023-11-21T01:39:00;6.63;;;4.07;;
75413;SDS011;64758;52.122;5.404;2023-11-21T01:41:27;9.07;;;4.50;;
75413;SDS011;64758;52.122;5.404;2023-11-21T01:43:55;7.82;;;4.30;;
75413;SDS011;64758;52.122;5.404;2023-11-21T01:46:22;9.20;;;4.35;;
75413;SDS011;64758;52.122;5.404;2023-11-21T01:48:50;8.30;;;4.28;;
75413;SDS011;64758;52.122;5.404;2023-11-21T01:51:17;8.20;;;4.43;;
75413;SDS011;64758;52.122;5.404;2023-11-21T01:53:45;10.15;;;4.55;;
75413;SDS011;64758;52.122;5.404;2023-11-21T01:56:13;8.98;;;3.97;;
75413;SDS011;64758;52.122;5.404;2023-11-21T01:58:40;6.28;;;3.67;;
75413;SDS011;64758;52.122;5.404;2023-11-21T02:01:08;6.80;;;3.55;;
75413;SDS011;64758;52.122;5.404;2023-11-21T02:03:36;7.60;;;3.93;;
75413;SDS011;64758;52.122;5.404;2023-11-21T02:06:02;10.75;;;4.03;;
75413;SDS011;64758;52.122;5.404;2023-11-21T02:08:29;7.13;;;4.15;;
75413;SDS011;64758;52.122;5.404;2023-11-21T02:10:56;7.85;;;3.63;;
75413;SDS011;64758;52.122;5.404;2023-11-21T02:13:24;8.27;;;3.88;;
75413;SDS011;64758;52.122;5.404;2023-11-21T02:15:50;9.50;;;4.67;;
75413;SDS011;64758;52.122;5.404;2023-11-21T02:18:18;9.30;;;4.57;;
75413;SDS011;64758;52.122;5.404;2023-11-21T02:20:45;8.13;;;4.25;;
75413;SDS011;64758;52.122;5.404;2023-11-21T02:23:12;9.02;;;4.10;;
75413;SDS011;64758;52.122;5.404;2023-11-21T02:25:39;10.68;;;4.70;;
75413;SDS011;64758;52.122;5.404;2023-11-21T02:28:06;10.10;;;4.97;;
75413;SDS011;64758;52.122;5.404;2023-11-21T02:30:33;9.52;;;4.72;;
75413;SDS011;64758;52.122;5.404;2023-11-21T02:33:00;8.43;;;4.55;;
75413;SDS011;64758;52.122;5.404;2023-11-21T02:35:27;8.45;;;4.30;;
75413;SDS011;64758;52.122;5.404;2023-11-21T02:37:54;7.25;;;4.85;;
75413;SDS011;64758;52.122;5.404;2023-11-21T02:40:21;10.27;;;4.97;;
75413;SDS011;64758;52.122;5.404;2023-11-21T02:42:48;10.98;;;4.90;;
75413;SDS011;64758;52.122;5.404;2023-11-21T02:45:18;9.82;;;4.55;;
75413;SDS011;64758;52.122;5.404;2023-11-21T02:47:47;9.65;;;4.38;;
75413;SDS011;64758;52.122;5.404;2023-11-21T02:50:15;11.60;;;4.88;;
75413;SDS011;64758;52.122;5.404;2023-11-21T02:52:41;9.70;;;4.53;;
75413;SDS011;64758;52.122;5.404;2023-11-21T02:55:08;8.65;;;4.45;;
75413;SDS011;64758;52.122;5.404;2023-11-21T02:57:35;8.23;;;4.07;;
75413;SDS011;64758;52.122;5.404;2023-11-21T03:00:01;8.27;;;4.20;;
75413;SDS011;64758;52.122;5.404;2023-11-21T03:02:28;9.30;;;4.35;;
75413;SDS011;64758;52.122;5.404;2023-11-21T03:04:55;7.67;;;3.90;;
75413;SDS011;64758;52.122;5.404;2023-11-21T03:07:22;9.25;;;4.25;;
75413;SDS011;64758;52.122;5.404;2023-11-21T03:09:48;9.50;;;4.68;;
75413;SDS011;64758;52.122;5.404;2023-11-21T03:12:15;11.23;;;4.80;;
75413;SDS011;64758;52.122;5.404;2023-11-21T03:14:42;9.32;;;4.47;;
75413;SDS011;64758;52.122;5.404;2023-11-21T03:17:08;8.87;;;4.87;;
75413;SDS011;64758;52.122;5.404;2023-11-21T03:19:35;10.70;;;4.53;;
75413;SDS011;64758;52.122;5.404;2023-11-21T03:22:01;8.07;;;4.43;;
75413;SDS011;64758;52.122;5.404;2023-11-21T03:24:28;8.15;;;4.40;;
75413;SDS011;64758;52.122;5.404;2023-11-21T03:26:55;8.63;;;4.35;;
75413;SDS011;64758;52.122;5.404;2023-11-21T03:29:21;7.70;;;3.97;;
75413;SDS011;64758;52.122;5.404;2023-11-21T03:31:48;9.40;;;4.70;;
75413;SDS011;64758;52.122;5.404;2023-11-21T03:34:23;10.07;;;4.63;;
75413;SDS011;64758;52.122;5.404;2023-11-21T03:36:52;6.97;;;4.03;;
75413;SDS011;64758;52.122;5.404;2023-11-21T03:39:22;8.02;;;4.40;;
75413;SDS011;64758;52.122;5.404;2023-11-21T03:41:49;10.53;;;4.27;;
75413;SDS011;64758;52.122;5.404;2023-11-21T03:44:15;7.55;;;4.20;;
75413;SDS011;64758;52.122;5.404;2023-11-21T03:46:42;11.02;;;4.85;;
75413;SDS011;64758;52.122;5.404;2023-11-21T03:49:08;8.25;;;4.18;;
75413;SDS011;64758;52.122;5.404;2023-11-21T03:51:35;7.65;;;4.30;;
75413;SDS011;64758;52.122;5.404;2023-11-21T03:54:01;10.20;;;4.43;;
75413;SDS011;64758;52.122;5.404;2023-11-21T03:56:29;7.80;;;4.43;;
75413;SDS011;64758;52.122;5.404;2023-11-21T03:58:56;9.20;;;4.45;;
75413;SDS011;64758;52.122;5.404;2023-11-21T04:01:22;8.55;;;4.18;;
75413;SDS011;64758;52.122;5.404;2023-11-21T04:03:50;12.00;;;4.60;;
75413;SDS011;64758;52.122;5.404;2023-11-21T04:06:17;7.50;;;3.53;;
75413;SDS011;64758;52.122;5.404;2023-11-21T04:08:44;7.47;;;3.97;;
75413;SDS011;64758;52.122;5.404;2023-11-21T04:11:12;7.57;;;3.75;;
75413;SDS011;64758;52.122;5.404;2023-11-21T04:13:39;6.40;;;3.92;;
75413;SDS011;64758;52.122;5.404;2023-11-21T04:16:07;8.27;;;3.95;;
75413;SDS011;64758;52.122;5.404;2023-11-21T04:18:37;7.47;;;4.27;;
75413;SDS011;64758;52.122;5.404;2023-11-21T04:21:04;10.57;;;4.82;;
75413;SDS011;64758;52.122;5.404;2023-11-21T04:23:32;8.40;;;4.57;;
75413;SDS011;64758;52.122;5.404;2023-11-21T04:25:58;8.68;;;4.63;;
75413;SDS011;64758;52.122;5.404;2023-11-21T04:28:25;12.90;;;5.05;;
75413;SDS011;64758;52.122;5.404;2023-11-21T04:30:52;10.90;;;4.87;;
75413;SDS011;64758;52.122;5.404;2023-11-21T04:33:18;12.45;;;5.85;;
75413;SDS011;64758;52.122;5.404;2023-11-21T04:35:45;14.05;;;5.20;;
75413;SDS011;64758;52.122;5.404;2023-11-21T04:38:12;10.63;;;4.95;;
75413;SDS011;64758;52.122;5.404;2023-11-21T04:40:39;10.85;;;5.45;;
75413;SDS011;64758;52.122;5.404;2023-11-21T04:43:05;10.23;;;5.07;;
75413;SDS011;64758;52.122;5.404;2023-11-21T04:45:32;9.57;;;4.60;;
75413;SDS011;64758;52.122;5.404;2023-11-21T04:47:58;13.43;;;5.18;;
75413;SDS011;64758;52.122;5.404;2023-11-21T04:50:25;8.13;;;4.75;;
75413;SDS011;64758;52.122;5.404;2023-11-21T04:52:54;10.55;;;5.10;;
75413;SDS011;64758;52.122;5.404;2023-11-21T04:55:21;11.93;;;5.30;;
75413;SDS011;64758;52.122;5.404;2023-11-21T04:57:48;9.93;;;5.03;;
75413;SDS011;64758;52.122;5.404;2023-11-21T05:00:14;9.55;;;4.93;;
75413;SDS011;64758;52.122;5.404;2023-11-21T05:02:42;13.85;;;5.40;;
75413;SDS011;64758;52.122;5.404;2023-11-21T05:05:10;10.85;;;5.18;;
75413;SDS011;64758;52.122;5.404;2023-11-21T05:07:41;14.17;;;5.57;;
75413;SDS011;64758;52.122;5.404;2023-11-21T05:10:09;10.68;;;5.45;;
75413;SDS011;64758;52.122;5.404;2023-11-21T05:12:39;12.18;;;5.88;;
75413;SDS011;64758;52.122;5.404;2023-11-21T05:15:07;10.10;;;5.32;;
75413;SDS011;64758;52.122;5.404;2023-11-21T05:17:37;11.90;;;5.30;;
75413;SDS011;64758;52.122;5.404;2023-11-21T05:20:07;10.83;;;5.00;;
75413;SDS011;64758;52.122;5.404;2023-11-21T05:22:36;9.55;;;4.88;;
75413;SDS011;64758;52.122;5.404;2023-11-21T05:25:03;12.38;;;5.10;;
75413;SDS011;64758;52.122;5.404;2023-11-21T05:27:30;12.63;;;5.10;;
75413;SDS011;64758;52.122;5.404;2023-11-21T05:29:57;12.93;;;5.43;;
75413;SDS011;64758;52.122;5.404;2023-11-21T05:32:24;11.70;;;4.90;;
75413;SDS011;64758;52.122;5.404;2023-11-21T05:34:51;12.48;;;5.30;;
75413;SDS011;64758;52.122;5.404;2023-11-21T05:37:18;10.25;;;5.22;;
75413;SDS011;64758;52.122;5.404;2023-11-21T05:39:45;12.05;;;5.40;;
75413;SDS011;64758;52.122;5.404;2023-11-21T05:42:11;11.13;;;5.60;;
75413;SDS011;64758;52.122;5.404;2023-11-21T05:44:38;8.90;;;4.87;;
75413;SDS011;64758;52.122;5.404;2023-11-21T05:47:07;12.82;;;5.32;;
75413;SDS011;64758;52.122;5.404;2023-11-21T05:49:35;16.60;;;5.22;;
75413;SDS011;64758;52.122;5.404;2023-11-21T05:52:02;15.43;;;4.90;;
75413;SDS011;64758;52.122;5.404;2023-11-21T05:54:29;16.08;;;5.50;;
75413;SDS011;64758;52.122;5.404;2023-11-21T05:56:55;12.13;;;5.43;;
75413;SDS011;64758;52.122;5.404;2023-11-21T05:59:22;9.60;;;5.40;;
75413;SDS011;64758;52.122;5.404;2023-11-21T06:01:49;11.95;;;5.50;;
75413;SDS011;64758;52.122;5.404;2023-11-21T06:04:15;13.00;;;5.18;;
75413;SDS011;64758;52.122;5.404;2023-11-21T06:06:42;9.93;;;5.10;;
75413;SDS011;64758;52.122;5.404;2023-11-21T06:09:09;9.67;;;5.27;;
75413;SDS011;64758;52.122;5.404;2023-11-21T06:11:35;11.65;;;4.82;;
75413;SDS011;64758;52.122;5.404;2023-11-21T06:14:02;11.70;;;5.57;;
75413;SDS011;64758;52.122;5.404;2023-11-21T06:16:29;13.27;;;5.57;;
75413;SDS011;64758;52.122;5.404;2023-11-21T06:18:55;9.75;;;5.18;;
75413;SDS011;64758;52.122;5.404;2023-11-21T06:21:22;14.97;;;5.30;;
75413;SDS011;64758;52.122;5.404;2023-11-21T06:23:48;12.93;;;5.35;;
75413;SDS011;64758;52.122;5.404;2023-11-21T06:26:19;13.93;;;5.63;;
75413;SDS011;64758;52.122;5.404;2023-11-21T06:28:46;14.23;;;5.45;;
75413;SDS011;64758;52.122;5.404;2023-11-21T06:31:13;10.98;;;5.22;;
75413;SDS011;64758;52.122;5.404;2023-11-21T06:33:40;7.83;;;4.77;;
75413;SDS011;64758;52.122;5.404;2023-11-21T06:36:07;12.13;;;5.40;;
75413;SDS011;64758;52.122;5.404;2023-11-21T06:38:34;13.18;;;5.93;;
75413;SDS011;64758;52.122;5.404;2023-11-21T06:41:01;14.60;;;5.28;;
75413;SDS011;64758;52.122;5.404;2023-11-21T06:43:30;10.75;;;5.50;;
75413;SDS011;64758;52.122;5.404;2023-11-21T06:45:57;13.70;;;5.17;;
75413;SDS011;64758;52.122;5.404;2023-11-21T06:48:24;9.27;;;5.05;;
75413;SDS011;64758;52.122;5.404;2023-11-21T06:50:51;8.80;;;5.07;;
75413;SDS011;64758;52.122;5.404;2023-11-21T06:53:18;10.30;;;5.13;;
75413;SDS011;64758;52.122;5.404;2023-11-21T06:55:45;9.27;;;5.15;;
75413;SDS011;64758;52.122;5.404;2023-11-21T06:58:12;12.00;;;5.13;;
75413;SDS011;64758;52.122;5.404;2023-11-21T07:00:40;8.32;;;4.65;;
75413;SDS011;64758;52.122;5.404;2023-11-21T07:03:07;11.23;;;4.95;;
75413;SDS011;64758;52.122;5.404;2023-11-21T07:05:34;9.02;;;4.82;;
75413;SDS011;64758;52.122;5.404;2023-11-21T07:08:00;10.32;;;4.47;;
75413;SDS011;64758;52.122;5.404;2023-11-21T07:10:30;10.13;;;5.27;;
75413;SDS011;64758;52.122;5.404;2023-11-21T07:12:57;9.52;;;5.15;;
75413;SDS011;64758;52.122;5.404;2023-11-21T07:15:24;9.65;;;4.72;;
75413;SDS011;64758;52.122;5.404;2023-11-21T07:17:52;13.73;;;4.80;;
75413;SDS011;64758;52.122;5.404;2023-11-21T07:20:20;8.48;;;4.47;;
75413;SDS011;64758;52.122;5.404;2023-11-21T07:22:47;8.57;;;4.87;;
75413;SDS011;64758;52.122;5.404;2023-11-21T07:25:14;12.70;;;4.45;;
75413;SDS011;64758;52.122;5.404;2023-11-21T07:27:41;11.02;;;4.63;;
75413;SDS011;64758;52.122;5.404;2023-11-21T07:30:08;10.07;;;4.22;;
75413;SDS011;64758;52.122;5.404;2023-11-21T07:32:36;8.20;;;4.00;;
75413;SDS011;64758;52.122;5.404;2023-11-21T07:35:06;11.13;;;4.07;;
75413;SDS011;64758;52.122;5.404;2023-11-21T07:37:34;7.32;;;4.28;;
75413;SDS011;64758;52.122;5.404;2023-11-21T07:40:01;10.57;;;4.63;;
75413;SDS011;64758;52.122;5.404;2023-11-21T07:42:27;9.48;;;4.13;;
75413;SDS011;64758;52.122;5.404;2023-11-21T07:44:54;10.65;;;4.40;;
75413;SDS011;64758;52.122;5.404;2023-11-21T07:47:20;9.00;;;4.03;;
75413;SDS011;64758;52.122;5.404;2023-11-21T07:49:47;7.65;;;4.15;;
75413;SDS011;64758;52.122;5.404;2023-11-21T07:52:14;9.20;;;4.10;;
75413;SDS011;64758;52.122;5.404;2023-11-21T07:54:42;12.90;;;4.50;;
75413;SDS011;64758;52.122;5.404;2023-11-21T07:57:09;10.63;;;4.28;;
75413;SDS011;64758;52.122;5.404;2023-11-21T07:59:40;6.60;;;3.30;;
75413;SDS011;64758;52.122;5.404;2023-11-21T08:02:07;9.27;;;3.70;;
75413;SDS011;64758;52.122;5.404;2023-11-21T08:04:34;9.65;;;3.60;;
75413;SDS011;64758;52.122;5.404;2023-11-21T08:07:01;7.40;;;3.83;;
75413;SDS011;64758;52.122;5.404;2023-11-21T08:09:30;10.75;;;3.72;;
75413;SDS011;64758;52.122;5.404;2023-11-21T08:11:56;9.23;;;3.23;;
75413;SDS011;64758;52.122;5.404;2023-11-21T08:14:23;9.82;;;3.40;;
75413;SDS011;64758;52.122;5.404;2023-11-21T08:16:51;8.95;;;3.45;;
75413;SDS011;64758;52.122;5.404;2023-11-21T08:19:18;7.78;;;3.20;;
75413;SDS011;64758;52.122;5.404;2023-11-21T08:21:45;4.63;;;2.95;;
75413;SDS011;64758;52.122;5.404;2023-11-21T08:24:12;6.97;;;2.90;;
75413;SDS011;64758;52.122;5.404;2023-11-21T08:26:38;6.15;;;3.40;;
75413;SDS011;64758;52.122;5.404;2023-11-21T08:29:05;6.63;;;3.30;;
75413;SDS011;64758;52.122;5.404;2023-11-21T08:31:33;7.68;;;3.95;;
75413;SDS011;64758;52.122;5.404;2023-11-21T08:34:00;10.95;;;3.05;;
75413;SDS011;64758;52.122;5.404;2023-11-21T08:36:29;9.53;;;3.00;;
75413;SDS011;64758;52.122;5.404;2023-11-21T08:38:57;6.43;;;2.80;;
75413;SDS011;64758;52.122;5.404;2023-11-21T08:41:24;8.55;;;3.28;;
75413;SDS011;64758;52.122;5.404;2023-11-21T08:43:51;5.22;;;2.80;;
75413;SDS011;64758;52.122;5.404;2023-11-21T08:46:18;8.02;;;2.80;;
75413;SDS011;64758;52.122;5.404;2023-11-21T08:48:45;6.50;;;2.80;;
75413;SDS011;64758;52.122;5.404;2023-11-21T08:51:12;6.93;;;2.58;;
75413;SDS011;64758;52.122;5.404;2023-11-21T08:53:40;13.55;;;3.35;;
75413;SDS011;64758;52.122;5.404;2023-11-21T08:56:07;6.63;;;2.92;;
75413;SDS011;64758;52.122;5.404;2023-11-21T08:58:35;5.93;;;3.10;;
75413;SDS011;64758;52.122;5.404;2023-11-21T09:01:04;8.23;;;3.23;;
75413;SDS011;64758;52.122;5.404;2023-11-21T09:03:31;6.55;;;3.00;;
75413;SDS011;64758;52.122;5.404;2023-11-21T09:06:00;8.00;;;3.67;;
75413;SDS011;64758;52.122;5.404;2023-11-21T09:08:27;10.30;;;3.72;;
75413;SDS011;64758;52.122;5.404;2023-11-21T09:10:55;9.38;;;4.30;;
75413;SDS011;64758;52.122;5.404;2023-11-21T09:13:22;8.93;;;4.07;;
75413;SDS011;64758;52.122;5.404;2023-11-21T09:15:51;8.57;;;4.00;;
75413;SDS011;64758;52.122;5.404;2023-11-21T09:18:18;8.93;;;4.13;;
75413;SDS011;64758;52.122;5.404;2023-11-21T09:20:45;8.57;;;4.43;;
75413;SDS011;64758;52.122;5.404;2023-11-21T09:23:11;9.50;;;4.78;;
75413;SDS011;64758;52.122;5.404;2023-11-21T09:25:38;9.90;;;5.10;;
75413;SDS011;64758;52.122;5.404;2023-11-21T09:28:05;12.90;;;5.60;;
75413;SDS011;64758;52.122;5.404;2023-11-21T09:30:34;12.38;;;5.40;;
75413;SDS011;64758;52.122;5.404;2023-11-21T09:33:02;13.52;;;6.22;;
75413;SDS011;64758;52.122;5.404;2023-11-21T09:35:31;11.00;;;5.28;;
75413;SDS011;64758;52.122;5.404;2023-11-21T09:37:57;11.60;;;5.73;;
75413;SDS011;64758;52.122;5.404;2023-11-21T09:40:24;12.80;;;5.97;;
75413;SDS011;64758;52.122;5.404;2023-11-21T09:45:36;9.60;;;5.15;;
75413;SDS011;64758;52.122;5.404;2023-11-21T09:48:05;8.95;;;5.47;;
75413;SDS011;64758;52.122;5.404;2023-11-21T09:50:33;9.93;;;5.97;;
75413;SDS011;64758;52.122;5.404;2023-11-21T09:53:18;12.80;;;5.22;;
75413;SDS011;64758;52.122;5.404;2023-11-21T09:55:51;12.18;;;6.00;;
75413;SDS011;64758;52.122;5.404;2023-11-21T09:58:19;13.73;;;5.68;;
75413;SDS011;64758;52.122;5.404;2023-11-21T10:00:51;11.77;;;5.00;;
75413;SDS011;64758;52.122;5.404;2023-11-21T10:03:19;12.63;;;5.43;;
75413;SDS011;64758;52.122;5.404;2023-11-21T10:05:46;10.63;;;5.65;;
75413;SDS011;64758;52.122;5.404;2023-11-21T10:08:16;14.48;;;5.85;;
75413;SDS011;64758;52.122;5.404;2023-11-21T10:10:43;10.98;;;5.28;;
75413;SDS011;64758;52.122;5.404;2023-11-21T10:13:12;11.32;;;5.30;;
75413;SDS011;64758;52.122;5.404;2023-11-21T10:15:43;9.30;;;4.53;;
75413;SDS011;64758;52.122;5.404;2023-11-21T10:18:15;9.57;;;4.55;;
75413;SDS011;64758;52.122;5.404;2023-11-21T10:20:42;11.02;;;4.80;;
75413;SDS011;64758;52.122;5.404;2023-11-21T10:23:12;11.02;;;5.13;;
75413;SDS011;64758;52.122;5.404;2023-11-21T10:25:42;8.55;;;3.88;;
75413;SDS011;64758;52.122;5.404;2023-11-21T10:28:09;7.03;;;3.50;;
75413;SDS011;64758;52.122;5.404;2023-11-21T10:30:37;6.35;;;3.13;;
75413;SDS011;64758;52.122;5.404;2023-11-21T10:33:05;6.10;;;3.35;;
75413;SDS011;64758;52.122;5.404;2023-11-21T10:38:08;7.70;;;3.95;;
75413;SDS011;64758;52.122;5.404;2023-11-21T10:40:37;8.13;;;4.63;;
75413;SDS011;64758;52.122;5.404;2023-11-21T10:43:06;9.32;;;4.43;;
75413;SDS011;64758;52.122;5.404;2023-11-21T10:45:38;9.90;;;4.95;;
75413;SDS011;64758;52.122;5.404;2023-11-21T10:48:06;10.63;;;4.80;;
75413;SDS011;64758;52.122;5.404;2023-11-21T10:50:35;9.02;;;4.72;;
75413;SDS011;64758;52.122;5.404;2023-11-21T10:53:02;11.40;;;4.47;;
75413;SDS011;64758;52.122;5.404;2023-11-21T10:55:30;9.15;;;4.22;;
75413;SDS011;64758;52.122;5.404;2023-11-21T10:57:59;6.28;;;3.63;;
75413;SDS011;64758;52.122;5.404;2023-11-21T11:00:28;8.10;;;4.00;;
75413;SDS011;64758;52.122;5.404;2023-11-21T11:02:55;9.23;;;4.35;;
75413;SDS011;64758;52.122;5.404;2023-11-21T11:05:23;9.43;;;4.60;;
75413;SDS011;64758;52.122;5.404;2023-11-21T11:08:13;11.60;;;4.47;;
75413;SDS011;64758;52.122;5.404;2023-11-21T11:10:39;8.65;;;4.30;;
75413;SDS011;64758;52.122;5.404;2023-11-21T11:13:06;12.32;;;5.00;;
75413;SDS011;64758;52.122;5.404;2023-11-21T11:15:33;10.00;;;4.65;;
75413;SDS011;64758;52.122;5.404;2023-11-21T11:18:00;10.10;;;4.73;;
75413;SDS011;64758;52.122;5.404;2023-11-21T11:20:30;10.93;;;5.07;;
75413;SDS011;64758;52.122;5.404;2023-11-21T11:29:01;10.27;;;5.38;;
75413;SDS011;64758;52.122;5.404;2023-11-21T11:31:40;8.87;;;4.33;;
75413;SDS011;64758;52.122;5.404;2023-11-21T11:37:10;9.25;;;4.60;;
75413;SDS011;64758;52.122;5.404;2023-11-21T11:39:40;8.32;;;4.32;;
75413;SDS011;64758;52.122;5.404;2023-11-21T11:42:10;8.15;;;4.10;;
75413;SDS011;64758;52.122;5.404;2023-11-21T11:47:23;7.90;;;4.88;;
75413;SDS011;64758;52.122;5.404;2023-11-21T11:52:43;11.77;;;5.38;;
75413;SDS011;64758;52.122;5.404;2023-11-21T11:55:13;10.60;;;5.45;;
75413;SDS011;64758;52.122;5.404;2023-11-21T11:57:41;9.87;;;5.40;;
75413;SDS011;64758;52.122;5.404;2023-11-21T12:02:56;12.55;;;5.40;;
75413;SDS011;64758;52.122;5.404;2023-11-21T12:05:30;10.38;;;5.57;;
75413;SDS011;64758;52.122;5.404;2023-11-21T12:08:10;11.90;;;5.65;;
75413;SDS011;64758;52.122;5.404;2023-11-21T12:10:38;10.77;;;5.90;;
75413;SDS011;64758;52.122;5.404;2023-11-21T12:13:06;13.77;;;6.38;;
75413;SDS011;64758;52.122;5.404;2023-11-21T12:15:34;12.25;;;6.05;;
75413;SDS011;64758;52.122;5.404;2023-11-21T12:18:03;10.50;;;5.63;;
75413;SDS011;64758;52.122;5.404;2023-11-21T12:20:30;13.07;;;6.10;;
75413;SDS011;64758;52.122;5.404;2023-11-21T12:22:58;13.17;;;6.03;;
75413;SDS011;64758;52.122;5.404;2023-11-21T12:25:26;13.20;;;6.47;;
75413;SDS011;64758;52.122;5.404;2023-11-21T12:28:00;14.70;;;6.80;;
75413;SDS011;64758;52.122;5.404;2023-11-21T12:30:30;12.88;;;6.82;;
75413;SDS011;64758;52.122;5.404;2023-11-21T12:32:59;11.77;;;6.35;;
75413;SDS011;64758;52.122;5.404;2023-11-21T12:35:30;13.27;;;6.73;;
75413;SDS011;64758;52.122;5.404;2023-11-21T12:38:02;13.55;;;6.65;;
75413;SDS011;64758;52.122;5.404;2023-11-21T12:40:30;13.10;;;6.63;;
75413;SDS011;64758;52.122;5.404;2023-11-21T12:42:57;13.57;;;6.72;;
75413;SDS011;64758;52.122;5.404;2023-11-21T12:45:28;14.25;;;7.55;;
75413;SDS011;64758;52.122;5.404;2023-11-21T12:47:58;14.07;;;7.37;;
75413;SDS011;64758;52.122;5.404;2023-11-21T12:50:27;14.90;;;6.65;;
75413;SDS011;64758;52.122;5.404;2023-11-21T12:53:03;16.02;;;7.28;;
75413;SDS011;64758;52.122;5.404;2023-11-21T12:55:32;13.18;;;6.85;;
75413;SDS011;64758;52.122;5.404;2023-11-21T12:58:05;14.95;;;6.97;;
75413;SDS011;64758;52.122;5.404;2023-11-21T13:00:38;13.43;;;6.57;;
75413;SDS011;64758;52.122;5.404;2023-11-21T13:03:09;13.95;;;6.95;;
75413;SDS011;64758;52.122;5.404;2023-11-21T13:05:39;13.25;;;6.57;;
75413;SDS011;64758;52.122;5.404;2023-11-21T13:08:14;13.48;;;7.07;;
75413;SDS011;64758;52.122;5.404;2023-11-21T13:10:46;14.38;;;6.68;;
75413;SDS011;64758;52.122;5.404;2023-11-21T13:13:16;12.23;;;5.77;;
75413;SDS011;64758;52.122;5.404;2023-11-21T13:15:49;15.93;;;5.70;;
75413;SDS011;64758;52.122;5.404;2023-11-21T13:18:16;11.38;;;5.57;;
75413;SDS011;64758;52.122;5.404;2023-11-21T13:20:43;9.07;;;4.55;;
75413;SDS011;64758;52.122;5.404;2023-11-21T13:23:10;7.00;;;3.70;;
75413;SDS011;64758;52.122;5.404;2023-11-21T13:25:42;6.40;;;3.13;;
75413;SDS011;64758;52.122;5.404;2023-11-21T13:28:19;6.43;;;3.20;;
75413;SDS011;64758;52.122;5.404;2023-11-21T13:30:48;4.38;;;2.08;;
75413;SDS011;64758;52.122;5.404;2023-11-21T13:33:14;7.22;;;2.40;;
75413;SDS011;64758;52.122;5.404;2023-11-21T13:35:47;4.72;;;2.20;;
75413;SDS011;64758;52.122;5.404;2023-11-21T13:38:17;3.90;;;1.67;;
75413;SDS011;64758;52.122;5.404;2023-11-21T13:40:46;4.95;;;2.00;;
75413;SDS011;64758;52.122;5.404;2023-11-21T13:43:20;3.63;;;1.50;;
75413;SDS011;64758;52.122;5.404;2023-11-21T13:45:51;4.35;;;1.67;;
75413;SDS011;64758;52.122;5.404;2023-11-21T13:48:25;4.95;;;2.17;;
75413;SDS011;64758;52.122;5.404;2023-11-21T13:50:58;6.30;;;2.77;;
75413;SDS011;64758;52.122;5.404;2023-11-21T13:53:27;5.63;;;2.45;;
75413;SDS011;64758;52.122;5.404;2023-11-21T13:55:54;6.55;;;2.72;;
75413;SDS011;64758;52.122;5.404;2023-11-21T13:58:22;7.28;;;3.35;;
75413;SDS011;64758;52.122;5.404;2023-11-21T14:00:52;7.72;;;3.85;;
75413;SDS011;64758;52.122;5.404;2023-11-21T14:03:24;10.50;;;4.80;;
75413;SDS011;64758;52.122;5.404;2023-11-21T14:06:05;9.10;;;4.68;;
75413;SDS011;64758;52.122;5.404;2023-11-21T14:08:40;10.25;;;5.07;;
75413;SDS011;64758;52.122;5.404;2023-11-21T14:11:07;10.80;;;5.22;;
75413;SDS011;64758;52.122;5.404;2023-11-21T14:13:37;12.43;;;5.10;;
75413;SDS011;64758;52.122;5.404;2023-11-21T14:16:04;12.53;;;6.40;;
75413;SDS011;64758;52.122;5.404;2023-11-21T14:18:33;13.90;;;6.70;;
75413;SDS011;64758;52.122;5.404;2023-11-21T14:21:05;16.00;;;6.63;;
75413;SDS011;64758;52.122;5.404;2023-11-21T14:23:36;14.95;;;6.72;;
75413;SDS011;64758;52.122;5.404;2023-11-21T14:26:04;13.35;;;6.22;;
75413;SDS011;64758;52.122;5.404;2023-11-21T14:28:32;14.03;;;6.23;;
75413;SDS011;64758;52.122;5.404;2023-11-21T14:31:01;14.52;;;6.82;;
75413;SDS011;64758;52.122;5.404;2023-11-21T14:33:29;14.60;;;6.78;;
75413;SDS011;64758;52.122;5.404;2023-11-21T14:35:55;14.57;;;6.57;;
75413;SDS011;64758;52.122;5.404;2023-11-21T14:38:23;15.93;;;6.82;;
75413;SDS011;64758;52.122;5.404;2023-11-21T14:40:50;12.13;;;5.93;;
75413;SDS011;64758;52.122;5.404;2023-11-21T14:43:16;15.75;;;7.22;;
75413;SDS011;64758;52.122;5.404;2023-11-21T14:45:45;13.73;;;6.90;;
75413;SDS011;64758;52.122;5.404;2023-11-21T14:48:11;14.48;;;7.05;;
75413;SDS011;64758;52.122;5.404;2023-11-21T14:50:42;14.07;;;6.82;;
75413;SDS011;64758;52.122;5.404;2023-11-21T14:53:09;12.47;;;6.57;;
75413;SDS011;64758;52.122;5.404;2023-11-21T14:55:39;14.20;;;6.38;;
75413;SDS011;64758;52.122;5.404;2023-11-21T14:58:22;16.15;;;7.80;;
75413;SDS011;64758;52.122;5.404;2023-11-21T15:00:55;17.83;;;7.93;;
75413;SDS011;64758;52.122;5.404;2023-11-21T15:03:28;17.17;;;8.23;;
75413;SDS011;64758;52.122;5.404;2023-11-21T15:05:58;14.77;;;7.63;;
75413;SDS011;64758;52.122;5.404;2023-11-21T15:08:38;14.23;;;7.65;;